Time;durP1;ratioP1;P1;durP2;ratioP2;P2;SDS_P1;SDS_P2;PMS_P1;PMS_P2;Temp;Humidity;BMP_temperature;BMP_pressure;BME280_temperature;BME280_humidity;BME280_pressure;Samples;Min_cycle;Max_cycle;Signal;HPM_P1;HPM_P2
2022/01/16 00:01:57;;;;;;;73.32;25.60;;;3.10;99.90;;;;;;4940481;28;20534;-74
2022/01/16 00:04:24;;;;;;;61.55;23.60;;;3.10;99.90;;;;;;4932979;28;20490;-75
2022/01/16 00:06:50;;;;;;;65.15;23.20;;;3.10;99.90;;;;;;4932422;29;20047;-74
2022/01/16 00:09:16;;;;;;;66.15;25.02;;;3.00;99.90;;;;;;4938702;28;20379;-74
2022/01/16 00:11:42;;;;;;;62.35;23.67;;;3.00;99.90;;;;;;4937101;28;20084;-74
2022/01/16 00:14:09;;;;;;;64.45;23.77;;;3.00;99.90;;;;;;4942324;28;20100;-74
2022/01/16 00:16:35;;;;;;;68.18;25.33;;;3.00;99.90;;;;;;4950967;28;20051;-74
2022/01/16 00:19:01;;;;;;;57.70;23.67;;;3.00;99.90;;;;;;5020559;28;20036;-74
2022/01/16 00:21:31;;;;;;;64.13;26.65;;;3.00;99.90;;;;;;4947648;28;20047;-74
2022/01/16 00:23:57;;;;;;;64.80;25.23;;;3.00;99.90;;;;;;4938371;28;20032;-74
2022/01/16 00:26:23;;;;;;;60.50;23.73;;;2.90;99.90;;;;;;4936180;28;20163;-74
2022/01/16 00:28:49;;;;;;;58.40;22.83;;;2.90;99.90;;;;;;4945434;28;20047;-75
2022/01/16 00:31:16;;;;;;;58.22;22.15;;;2.80;99.90;;;;;;4935023;28;20052;-74
2022/01/16 00:33:44;;;;;;;58.22;21.38;;;2.90;99.90;;;;;;4946797;28;20051;-75
2022/01/16 00:36:11;;;;;;;54.38;22.15;;;2.90;99.90;;;;;;4947286;28;20043;-74
2022/01/16 00:38:43;;;;;;;58.45;23.55;;;2.90;99.90;;;;;;4936932;28;20044;-74
2022/01/16 00:41:09;;;;;;;58.38;23.50;;;2.80;99.90;;;;;;4935346;28;20410;-74
2022/01/16 00:43:34;;;;;;;61.90;22.67;;;2.80;99.90;;;;;;4934099;29;20098;-74
2022/01/16 00:46:03;;;;;;;62.67;23.33;;;2.80;99.90;;;;;;4940967;28;20052;-74
2022/01/16 00:48:28;;;;;;;61.53;24.23;;;2.80;99.90;;;;;;4936897;28;20047;-74
2022/01/16 00:50:54;;;;;;;59.58;23.27;;;2.80;99.90;;;;;;4942583;28;20759;-74
2022/01/16 00:53:20;;;;;;;60.03;23.02;;;2.80;99.90;;;;;;4949925;28;20126;-74
2022/01/16 00:55:45;;;;;;;66.35;24.80;;;2.80;99.90;;;;;;4943403;28;20422;-74
2022/01/16 00:58:11;;;;;;;62.20;23.88;;;2.80;99.90;;;;;;4950601;28;20406;-74
2022/01/16 01:00:37;;;;;;;56.17;22.05;;;2.80;99.90;;;;;;4948884;28;20043;-75
2022/01/16 01:03:05;;;;;;;54.40;22.30;;;2.80;99.90;;;;;;4935007;28;20066;-74
2022/01/16 01:05:32;;;;;;;52.45;22.75;;;2.80;99.90;;;;;;4948009;28;20129;-74
2022/01/16 01:07:58;;;;;;;54.17;23.02;;;2.80;99.90;;;;;;4945229;28;20043;-74
2022/01/16 01:10:29;;;;;;;53.33;22.13;;;2.80;99.90;;;;;;4941311;28;20162;-74
2022/01/16 01:13:07;;;;;;;54.17;22.50;;;2.70;99.90;;;;;;4927611;28;20075;-74
2022/01/16 01:15:41;;;;;;;49.75;21.08;;;2.70;99.90;;;;;;4934826;28;20055;-74
2022/01/16 01:18:07;;;;;;;53.08;21.30;;;2.70;99.90;;;;;;4936752;28;20046;-74
2022/01/16 01:20:33;;;;;;;55.83;22.48;;;2.70;99.90;;;;;;4933846;28;20051;-74
2022/01/16 01:22:58;;;;;;;51.13;22.55;;;2.70;99.90;;;;;;4935135;28;20056;-74
2022/01/16 01:25:24;;;;;;;53.53;22.20;;;2.60;99.90;;;;;;4941606;28;20483;-74
2022/01/16 01:27:50;;;;;;;56.03;22.83;;;2.60;99.90;;;;;;4944407;28;20050;-74
2022/01/16 01:30:19;;;;;;;52.03;23.92;;;2.60;99.90;;;;;;4942021;28;20048;-74
2022/01/16 01:32:47;;;;;;;59.50;24.95;;;2.50;99.90;;;;;;4937152;28;20051;-74
2022/01/16 01:35:15;;;;;;;63.95;24.30;;;2.60;99.90;;;;;;4940453;28;20077;-74
2022/01/16 01:37:41;;;;;;;57.08;24.23;;;2.60;99.90;;;;;;4938353;28;20494;-74
2022/01/16 01:40:16;;;;;;;54.38;23.67;;;2.60;99.90;;;;;;4941188;28;20114;-74
2022/01/16 01:42:51;;;;;;;62.00;24.33;;;2.60;99.90;;;;;;4936340;29;20066;-74
2022/01/16 01:51:38;;;;;;;63.67;25.63;;;2.50;99.90;;;;;;4950207;28;20055;-74
2022/01/16 01:54:06;;;;;;;62.38;25.08;;;2.50;99.90;;;;;;4939278;28;20043;-74
2022/01/16 01:56:32;;;;;;;63.35;25.17;;;2.50;99.90;;;;;;4943142;28;20055;-74
2022/01/16 01:59:00;;;;;;;65.88;24.95;;;2.50;99.90;;;;;;4990816;28;20042;-74
2022/01/16 02:01:27;;;;;;;68.53;26.38;;;2.50;99.90;;;;;;4943898;28;20043;-74
2022/01/16 02:03:53;;;;;;;65.53;26.30;;;2.60;99.90;;;;;;4946982;28;20039;-74
2022/01/16 02:06:22;;;;;;;65.15;25.75;;;2.70;99.90;;;;;;4934632;28;20052;-74
2022/01/16 02:08:52;;;;;;;62.38;24.70;;;2.60;99.90;;;;;;4949375;28;20080;-74
2022/01/16 02:11:20;;;;;;;74.30;29.63;;;2.60;99.90;;;;;;4939865;28;20419;-75
2022/01/16 02:13:56;;;;;;;64.47;27.02;;;2.70;99.90;;;;;;4931847;29;20499;-74
2022/01/16 02:33:25;;;;;;;69.38;26.25;;;2.60;99.90;;;;;;4943496;28;20094;-74
2022/01/16 02:35:54;;;;;;;70.43;26.83;;;2.50;99.90;;;;;;4936907;28;20108;-74
2022/01/16 02:38:21;;;;;;;80.82;28.92;;;2.50;99.90;;;;;;4947547;28;20087;-74
2022/01/16 02:40:53;;;;;;;68.88;28.73;;;2.50;99.90;;;;;;4939011;28;20079;-74
2022/01/16 02:43:30;;;;;;;78.57;26.88;;;2.50;99.90;;;;;;4947337;28;20051;-74
2022/01/16 02:46:35;;;;;;;70.72;25.73;;;2.50;99.90;;;;;;4943104;28;20051;-74
2022/01/16 02:48:48;;;;;;;72.95;29.73;;;2.50;99.90;;;;;;4942408;28;21006;-74
2022/01/16 02:51:19;;;;;;;79.13;32.40;;;2.60;99.90;;;;;;4947372;28;20135;-74
2022/01/16 02:53:46;;;;;;;86.05;31.02;;;2.60;99.90;;;;;;4939164;28;20054;-74
2022/01/16 02:56:13;;;;;;;81.95;30.85;;;2.60;99.90;;;;;;4941691;28;20127;-74
2022/01/16 02:58:39;;;;;;;82.65;30.15;;;2.60;99.90;;;;;;4943883;28;20059;-74
2022/01/16 03:01:06;;;;;;;85.82;31.08;;;2.60;99.90;;;;;;4942917;28;20083;-74
2022/01/16 03:03:31;;;;;;;81.28;30.77;;;2.50;99.90;;;;;;4939513;28;20057;-74
2022/01/16 03:05:57;;;;;;;83.70;31.38;;;2.70;99.90;;;;;;4945109;28;20506;-74
2022/01/16 03:08:22;;;;;;;78.25;28.13;;;2.50;99.90;;;;;;4939526;28;20047;-74
2022/01/16 03:13:31;;;;;;;86.03;31.73;;;2.50;99.90;;;;;;4928819;28;20043;-74
2022/01/16 03:15:56;;;;;;;86.57;32.47;;;2.50;99.90;;;;;;4929281;28;20043;-74
2022/01/16 03:23:33;;;;;;;97.85;36.47;;;2.80;99.90;;;;;;4941423;28;20054;-74
2022/01/16 03:25:59;;;;;;;101.88;33.63;;;2.50;99.90;;;;;;4936478;28;20494;-74
2022/01/16 03:28:25;;;;;;;97.05;34.35;;;2.50;99.90;;;;;;4938324;28;20483;-74
2022/01/16 03:30:52;;;;;;;105.88;36.28;;;2.50;99.90;;;;;;4999553;28;20050;-74
2022/01/16 03:33:20;;;;;;;103.95;35.10;;;2.50;99.90;;;;;;4938767;28;20478;-74
2022/01/16 03:35:46;;;;;;;107.15;35.75;;;2.70;99.90;;;;;;4935258;28;20094;-74
2022/01/16 03:38:12;;;;;;;106.80;35.03;;;2.50;99.90;;;;;;4932041;28;20043;-74
2022/01/16 03:40:38;;;;;;;96.38;31.77;;;2.50;99.90;;;;;;4944191;28;20132;-74
2022/01/16 03:43:11;;;;;;;111.22;34.75;;;2.50;99.90;;;;;;4934558;28;20097;-74
2022/01/16 03:45:38;;;;;;;111.15;35.20;;;2.50;99.90;;;;;;4947631;29;20039;-73
2022/01/16 03:48:04;;;;;;;99.60;32.05;;;2.50;99.90;;;;;;4963364;28;20083;-73
2022/01/16 03:50:30;;;;;;;93.47;33.17;;;2.50;99.90;;;;;;4932052;28;20044;-73
2022/01/16 03:52:55;;;;;;;99.30;33.60;;;2.50;99.90;;;;;;4929982;28;20054;-73
2022/01/16 03:55:21;;;;;;;104.55;35.00;;;2.50;99.90;;;;;;4935342;28;20067;-73
2022/01/16 03:57:46;;;;;;;110.95;37.35;;;2.50;99.90;;;;;;4945604;28;20047;-73
2022/01/16 04:00:13;;;;;;;102.40;33.60;;;2.50;99.90;;;;;;4936329;28;20052;-73
2022/01/16 04:02:38;;;;;;;114.20;35.75;;;2.50;99.90;;;;;;4932428;28;20040;-73
2022/01/16 04:05:04;;;;;;;89.68;31.80;;;2.50;99.90;;;;;;4946604;28;20476;-73
2022/01/16 04:07:35;;;;;;;104.82;35.03;;;2.50;99.90;;;;;;4938789;28;20074;-73
2022/01/16 04:10:06;;;;;;;99.28;34.08;;;2.60;99.90;;;;;;4943534;28;20051;-73
2022/01/16 04:12:34;;;;;;;110.63;34.70;;;2.60;99.90;;;;;;4933925;28;20040;-73
2022/01/16 04:17:26;;;;;;;122.70;35.92;;;2.60;99.90;;;;;;4977005;28;20060;-73
2022/01/16 04:19:52;;;;;;;125.10;38.03;;;2.60;99.90;;;;;;4933312;28;20094;-73
2022/01/16 04:22:19;;;;;;;117.90;35.20;;;2.60;99.90;;;;;;4954555;28;20050;-73
2022/01/16 04:24:45;;;;;;;123.47;34.28;;;2.60;99.90;;;;;;4939154;28;20059;-73
2022/01/16 04:27:12;;;;;;;114.88;34.63;;;2.60;99.90;;;;;;4933640;28;20063;-73
2022/01/16 04:29:38;;;;;;;114.43;35.15;;;2.70;99.90;;;;;;4931645;28;20514;-73
2022/01/16 04:32:05;;;;;;;115.82;35.53;;;2.70;99.90;;;;;;4930119;28;20557;-73
2022/01/16 04:34:31;;;;;;;108.53;34.25;;;2.70;99.90;;;;;;4937417;28;20044;-74
2022/01/16 04:36:57;;;;;;;119.88;37.17;;;2.70;99.90;;;;;;4943897;28;20051;-73
2022/01/16 04:39:30;;;;;;;126.20;37.05;;;2.70;99.90;;;;;;4932380;28;20125;-73
2022/01/16 04:44:41;;;;;;;118.13;37.38;;;2.70;99.90;;;;;;4932041;28;20117;-73
2022/01/16 04:47:07;;;;;;;117.15;35.08;;;2.70;99.90;;;;;;4931776;28;20051;-74
2022/01/16 04:49:32;;;;;;;105.38;34.50;;;2.80;99.90;;;;;;4932965;28;20044;-73
2022/01/16 04:52:01;;;;;;;130.60;35.42;;;2.80;99.90;;;;;;4936244;28;20197;-73
2022/01/16 04:54:27;;;;;;;118.47;34.38;;;2.80;99.90;;;;;;5013642;28;20800;-73
2022/01/16 04:56:53;;;;;;;115.80;33.75;;;2.80;99.90;;;;;;4930153;28;20051;-73
2022/01/16 04:59:20;;;;;;;128.32;35.78;;;2.80;99.90;;;;;;4931113;28;20132;-73
2022/01/16 05:01:46;;;;;;;105.43;32.38;;;2.80;99.90;;;;;;4938653;28;20063;-73
2022/01/16 05:04:12;;;;;;;129.95;36.95;;;2.90;99.90;;;;;;4947059;28;20040;-73
2022/01/16 05:06:38;;;;;;;124.65;35.95;;;2.90;99.90;;;;;;4935549;28;20454;-73
2022/01/16 05:09:04;;;;;;;105.68;31.95;;;2.90;99.90;;;;;;4933707;28;20044;-73
2022/01/16 05:11:30;;;;;;;107.00;34.08;;;2.90;99.90;;;;;;4935407;28;20047;-73
2022/01/16 05:16:38;;;;;;;124.75;36.03;;;2.90;99.90;;;;;;4936833;28;20047;-73
2022/01/16 05:19:12;;;;;;;123.32;35.63;;;3.00;99.90;;;;;;4933694;29;20453;-74
2022/01/16 05:21:38;;;;;;;;;;;3.00;99.90;;;;;;4946030;28;20073;-73
2022/01/16 05:24:08;;;;;;;120.35;33.75;;;3.00;99.90;;;;;;4933630;28;19922;-73
2022/01/16 05:26:35;;;;;;;129.00;36.70;;;3.00;99.90;;;;;;4936332;28;20050;-73
2022/01/16 05:29:02;;;;;;;122.85;34.90;;;3.50;99.90;;;;;;4953762;28;20501;-73
2022/01/16 05:31:28;;;;;;;139.25;37.95;;;3.00;99.90;;;;;;4931822;28;20502;-73
2022/01/16 05:33:53;;;;;;;128.77;35.63;;;3.00;99.90;;;;;;4947031;28;20055;-74
2022/01/16 05:36:20;;;;;;;126.88;38.88;;;3.00;99.90;;;;;;4935961;28;20054;-73
2022/01/16 05:38:46;;;;;;;124.82;38.20;;;3.10;99.90;;;;;;4937428;28;20055;-73
2022/01/16 05:41:12;;;;;;;127.47;37.72;;;3.10;99.90;;;;;;4943673;28;20047;-73
2022/01/16 05:43:37;;;;;;;131.88;38.20;;;3.10;99.90;;;;;;4940893;28;20403;-73
2022/01/16 05:46:03;;;;;;;124.85;35.80;;;3.10;99.90;;;;;;4931176;28;20047;-73
2022/01/16 05:48:29;;;;;;;108.22;34.35;;;3.20;99.90;;;;;;4937151;28;20047;-73
2022/01/16 05:50:55;;;;;;;143.75;39.00;;;3.10;99.90;;;;;;4945418;28;20457;-73
2022/01/16 05:53:21;;;;;;;131.73;39.67;;;3.10;99.90;;;;;;4946646;28;20433;-73
2022/01/16 05:55:47;;;;;;;144.35;40.08;;;3.20;99.90;;;;;;4932563;28;20052;-73
2022/01/16 05:58:14;;;;;;;133.45;38.45;;;3.10;99.90;;;;;;4934060;28;20097;-73
2022/01/16 06:00:40;;;;;;;135.00;40.22;;;3.20;99.90;;;;;;4950268;28;20043;-73
2022/01/16 06:03:06;;;;;;;133.45;39.95;;;3.10;99.90;;;;;;4936379;28;20062;-73
2022/01/16 06:05:32;;;;;;;151.88;37.85;;;3.20;99.90;;;;;;4938863;28;20044;-73
2022/01/16 06:08:01;;;;;;;132.27;39.42;;;3.20;99.90;;;;;;4933108;28;20384;-73
2022/01/16 06:10:27;;;;;;;121.35;38.83;;;3.20;99.90;;;;;;4933941;28;20051;-73
2022/01/16 06:12:53;;;;;;;132.98;38.85;;;3.20;99.90;;;;;;4935395;28;20435;-73
2022/01/16 06:15:20;;;;;;;141.30;39.63;;;3.20;99.90;;;;;;4934810;28;20139;-73
2022/01/16 06:17:46;;;;;;;138.63;40.10;;;3.20;99.90;;;;;;4931832;28;20047;-73
2022/01/16 06:20:14;;;;;;;139.52;40.13;;;3.20;99.90;;;;;;4934336;28;20063;-73
2022/01/16 06:22:40;;;;;;;130.05;37.65;;;3.30;99.90;;;;;;4941231;28;20058;-73
2022/01/16 06:25:06;;;;;;;134.02;39.08;;;3.30;99.90;;;;;;4937788;28;20055;-73
2022/01/16 06:27:31;;;;;;;136.52;41.63;;;3.30;99.90;;;;;;4934148;28;20062;-73
2022/01/16 06:29:57;;;;;;;152.38;41.25;;;3.30;99.90;;;;;;4935586;28;20415;-73
2022/01/16 06:32:23;;;;;;;123.07;39.30;;;3.30;99.90;;;;;;4936414;28;20502;-73
2022/01/16 06:34:48;;;;;;;143.85;40.20;;;3.30;99.90;;;;;;4934572;28;20101;-73
2022/01/16 06:37:14;;;;;;;128.80;39.72;;;3.30;99.90;;;;;;4939272;28;20055;-73
2022/01/16 06:39:39;;;;;;;141.63;42.28;;;3.30;99.90;;;;;;4934508;28;20051;-73
2022/01/16 06:42:05;;;;;;;140.50;43.97;;;3.50;99.90;;;;;;4932641;28;20225;-72
2022/01/16 06:44:31;;;;;;;135.80;41.08;;;3.40;99.90;;;;;;4935440;28;20043;-72
2022/01/16 06:46:56;;;;;;;141.68;40.53;;;3.40;99.90;;;;;;4934540;28;20040;-72
2022/01/16 06:49:22;;;;;;;152.10;40.70;;;3.40;99.90;;;;;;4935809;28;20173;-74
2022/01/16 06:51:48;;;;;;;151.05;40.72;;;3.40;99.90;;;;;;4946517;28;20145;-72
2022/01/16 06:54:13;;;;;;;147.52;41.53;;;3.50;99.90;;;;;;4940621;28;20043;-72
2022/01/16 06:56:39;;;;;;;139.10;42.58;;;3.50;99.90;;;;;;4932996;28;20491;-76
2022/01/16 06:59:04;;;;;;;135.60;39.00;;;3.50;99.90;;;;;;4936412;28;20039;-72
2022/01/16 07:01:30;;;;;;;129.07;40.38;;;3.50;99.90;;;;;;4935040;28;20466;-72
2022/01/16 07:03:56;;;;;;;132.48;40.25;;;3.60;99.90;;;;;;5015624;28;20062;-72
2022/01/16 07:06:22;;;;;;;133.35;41.00;;;3.60;99.90;;;;;;4938082;28;20405;-72
2022/01/16 07:08:47;;;;;;;118.85;34.92;;;3.60;99.90;;;;;;4931404;28;20094;-72
2022/01/16 07:11:13;;;;;;;129.65;38.97;;;3.70;99.90;;;;;;4934149;28;20483;-73
2022/01/16 07:13:39;;;;;;;130.20;39.00;;;3.70;99.90;;;;;;4933705;28;20039;-71
2022/01/16 07:16:05;;;;;;;132.18;41.30;;;3.70;99.90;;;;;;4929295;29;20055;-74
2022/01/16 07:18:30;;;;;;;122.32;39.78;;;3.70;99.90;;;;;;4938961;28;20040;-71
2022/01/16 07:20:56;;;;;;;132.00;39.78;;;3.80;99.90;;;;;;4932682;28;20048;-71
2022/01/16 07:23:22;;;;;;;136.82;40.08;;;3.80;99.90;;;;;;4935574;28;20054;-71
2022/01/16 07:25:48;;;;;;;141.82;40.92;;;3.80;99.90;;;;;;4935573;28;20047;-72
2022/01/16 07:28:14;;;;;;;136.77;39.00;;;3.80;99.90;;;;;;4942494;28;20047;-72
2022/01/16 07:30:41;;;;;;;130.70;41.22;;;3.90;99.90;;;;;;4935015;28;20079;-72
2022/01/16 07:33:09;;;;;;;140.98;41.65;;;3.90;99.90;;;;;;4935799;28;20047;-72
2022/01/16 07:35:36;;;;;;;135.02;40.85;;;3.90;99.90;;;;;;4934066;28;20126;-72
2022/01/16 07:38:02;;;;;;;138.95;41.10;;;3.90;99.90;;;;;;4934243;28;20528;-72
2022/01/16 07:40:28;;;;;;;122.55;40.85;;;3.90;99.90;;;;;;4931058;28;20066;-72
2022/01/16 07:42:54;;;;;;;141.27;43.53;;;4.00;99.90;;;;;;4933532;28;20048;-73
2022/01/16 07:45:20;;;;;;;133.70;41.55;;;4.00;99.90;;;;;;4936457;28;20462;-73
2022/01/16 07:47:46;;;;;;;134.75;41.85;;;4.00;99.90;;;;;;4933060;28;20056;-73
2022/01/16 07:50:13;;;;;;;138.75;43.95;;;4.00;99.90;;;;;;4939237;28;20047;-73
2022/01/16 07:52:39;;;;;;;109.63;36.90;;;4.00;99.90;;;;;;4929985;28;20154;-73
2022/01/16 07:55:05;;;;;;;115.10;38.60;;;4.00;99.90;;;;;;4933806;28;20130;-73
2022/01/16 07:57:31;;;;;;;117.78;38.78;;;4.10;99.90;;;;;;4931754;28;20042;-73
2022/01/16 07:59:56;;;;;;;134.82;43.05;;;4.10;99.90;;;;;;4932158;28;20047;-73
2022/01/16 08:02:22;;;;;;;155.10;44.42;;;4.10;99.90;;;;;;4933960;28;20051;-73
2022/01/16 08:04:48;;;;;;;132.50;42.10;;;4.10;99.90;;;;;;4937434;28;20150;-73
2022/01/16 08:07:13;;;;;;;126.28;42.78;;;4.20;99.90;;;;;;4931237;28;20044;-73
2022/01/16 08:09:40;;;;;;;142.40;44.22;;;4.10;99.90;;;;;;4932723;28;20177;-73
2022/01/16 08:12:07;;;;;;;127.10;41.20;;;4.10;99.90;;;;;;4936209;28;20075;-73
2022/01/16 08:14:34;;;;;;;129.25;38.60;;;4.20;99.90;;;;;;4929987;28;20059;-73
2022/01/16 08:17:00;;;;;;;115.13;40.72;;;4.20;99.90;;;;;;4934166;28;20189;-73
2022/01/16 08:19:27;;;;;;;128.95;42.83;;;4.30;99.90;;;;;;4935782;28;20062;-73
2022/01/16 08:21:53;;;;;;;137.35;42.60;;;4.20;99.90;;;;;;4933043;28;20040;-73
2022/01/16 08:24:18;;;;;;;140.77;43.83;;;4.30;99.90;;;;;;4937665;28;20048;-72
2022/01/16 08:26:44;;;;;;;135.88;44.72;;;4.30;99.90;;;;;;4932182;28;20043;-73
2022/01/16 08:29:10;;;;;;;128.50;43.00;;;4.30;99.90;;;;;;4935478;28;20051;-72
2022/01/16 08:31:36;;;;;;;127.05;44.50;;;4.30;99.90;;;;;;4936640;28;20134;-73
2022/01/16 08:34:02;;;;;;;118.45;43.88;;;4.30;99.90;;;;;;4939584;28;20078;-73
2022/01/16 08:36:28;;;;;;;127.10;42.35;;;4.40;99.90;;;;;;4941758;28;20091;-73
2022/01/16 08:38:56;;;;;;;123.95;42.53;;;4.40;99.90;;;;;;4942740;28;20060;-73
2022/01/16 08:41:23;;;;;;;92.25;34.17;;;4.40;99.90;;;;;;4936484;28;20063;-73
2022/01/16 08:43:49;;;;;;;117.28;41.05;;;4.40;99.90;;;;;;4935815;28;20067;-73
2022/01/16 08:46:14;;;;;;;121.82;41.80;;;4.50;99.90;;;;;;4934039;29;20050;-75
2022/01/16 08:48:40;;;;;;;105.00;38.22;;;4.50;99.90;;;;;;4940944;28;20043;-74
2022/01/16 08:51:07;;;;;;;103.07;39.78;;;4.50;99.90;;;;;;4937496;28;20067;-74
2022/01/16 08:53:32;;;;;;;106.72;39.35;;;4.60;99.90;;;;;;4936103;28;20043;-74
2022/01/16 08:55:59;;;;;;;99.43;36.95;;;4.60;99.90;;;;;;4939649;28;20287;-74
2022/01/16 08:58:25;;;;;;;99.45;36.97;;;4.70;99.90;;;;;;4937308;28;20445;-73
2022/01/16 09:00:51;;;;;;;94.28;37.63;;;4.70;99.90;;;;;;4936292;29;20044;-74
2022/01/16 09:03:19;;;;;;;103.32;39.05;;;4.70;99.90;;;;;;4943845;28;20441;-74
2022/01/16 09:05:45;;;;;;;100.38;37.33;;;4.80;99.90;;;;;;4946622;28;20059;-73
2022/01/16 09:08:11;;;;;;;94.22;37.60;;;4.80;99.90;;;;;;4935109;28;20370;-74
2022/01/16 09:10:37;;;;;;;99.32;37.13;;;4.90;99.90;;;;;;4932901;28;20093;-74
2022/01/16 09:13:04;;;;;;;93.50;37.67;;;4.90;99.90;;;;;;4935444;28;20161;-74
2022/01/16 09:15:29;;;;;;;100.03;39.75;;;4.90;99.90;;;;;;4936678;28;20039;-74
2022/01/16 09:17:55;;;;;;;90.53;36.17;;;5.00;99.90;;;;;;4940753;28;20513;-75
2022/01/16 09:20:21;;;;;;;90.68;38.90;;;5.00;99.90;;;;;;4938328;28;20038;-75
2022/01/16 09:22:48;;;;;;;86.20;36.25;;;5.00;99.90;;;;;;4939924;28;20502;-74
2022/01/16 09:25:15;;;;;;;86.03;36.95;;;5.10;99.90;;;;;;4952436;28;20051;-75
2022/01/16 09:27:41;;;;;;;88.00;35.20;;;5.10;99.90;;;;;;4935191;28;20048;-74
2022/01/16 09:30:09;;;;;;;85.30;36.42;;;5.10;99.90;;;;;;4935723;28;20410;-74
2022/01/16 09:32:36;;;;;;;78.90;34.03;;;5.10;99.90;;;;;;4932239;28;20127;-75
2022/01/16 09:35:03;;;;;;;79.68;35.17;;;5.10;99.90;;;;;;4939038;29;20055;-74
2022/01/16 09:37:28;;;;;;;83.25;35.20;;;5.20;99.90;;;;;;4932674;28;20105;-74
2022/01/16 09:39:54;;;;;;;78.78;35.20;;;5.20;99.90;;;;;;4932215;28;20454;-74
2022/01/16 09:42:23;;;;;;;69.95;31.85;;;5.20;99.90;;;;;;4931747;28;20082;-75
2022/01/16 09:44:49;;;;;;;72.60;33.08;;;5.30;99.90;;;;;;4937275;28;20561;-75
2022/01/16 09:47:14;;;;;;;82.00;33.15;;;5.30;99.90;;;;;;4935473;28;20097;-74
2022/01/16 09:49:40;;;;;;;69.68;30.65;;;5.30;99.90;;;;;;4933619;28;20047;-75
2022/01/16 09:52:07;;;;;;;75.32;32.50;;;5.30;99.90;;;;;;4932723;28;20074;-75
2022/01/16 09:54:33;;;;;;;67.82;31.00;;;5.30;99.90;;;;;;4932602;28;20044;-75
2022/01/16 09:56:58;;;;;;;68.60;30.45;;;5.40;99.90;;;;;;4930902;28;20074;-74
2022/01/16 09:59:24;;;;;;;70.32;31.10;;;5.40;99.90;;;;;;4934161;28;20043;-75
2022/01/16 10:01:50;;;;;;;65.65;30.35;;;5.40;99.90;;;;;;4939944;28;20089;-74
2022/01/16 10:04:37;;;;;;;61.67;29.73;;;5.40;99.90;;;;;;4943151;28;20565;-74
2022/01/16 10:07:17;;;;;;;59.92;29.35;;;5.50;99.90;;;;;;4941480;28;20054;-74
2022/01/16 10:10:09;;;;;;;53.45;27.88;;;5.50;99.90;;;;;;4942466;28;20087;-74
2022/01/16 10:12:35;;;;;;;56.40;28.38;;;5.50;99.90;;;;;;4956083;28;20141;-74
2022/01/16 10:15:22;;;;;;;50.15;28.15;;;5.60;99.90;;;;;;4935150;28;20937;-74
2022/01/16 10:17:50;;;;;;;52.28;26.25;;;5.60;99.90;;;;;;4932249;28;20039;-75
2022/01/16 10:20:16;;;;;;;50.25;26.85;;;5.70;99.90;;;;;;4936913;28;20051;-75
2022/01/16 10:22:48;;;;;;;53.30;27.48;;;5.70;99.90;;;;;;4933604;28;20050;-75
2022/01/16 10:25:17;;;;;;;51.83;26.95;;;5.70;99.90;;;;;;4931334;28;20083;-75
2022/01/16 10:27:47;;;;;;;48.25;25.67;;;5.80;99.90;;;;;;4941098;28;20125;-75
2022/01/16 10:30:17;;;;;;;48.15;23.67;;;5.80;99.90;;;;;;4955359;28;20045;-74
2022/01/16 10:32:46;;;;;;;43.97;24.45;;;5.80;99.90;;;;;;4937620;28;20067;-75
2022/01/16 10:35:22;;;;;;;48.85;24.17;;;5.80;99.90;;;;;;4958465;28;20039;-75
2022/01/16 10:37:54;;;;;;;43.40;23.90;;;6.10;99.90;;;;;;4959931;28;20040;-75
2022/01/16 10:40:24;;;;;;;44.42;23.55;;;5.90;99.90;;;;;;4930439;28;20064;-75
2022/01/16 10:42:52;;;;;;;47.13;25.15;;;5.90;99.90;;;;;;4938189;28;20051;-75
2022/01/16 10:45:23;;;;;;;42.88;23.33;;;5.90;99.90;;;;;;4939153;28;20494;-74
2022/01/16 10:47:54;;;;;;;37.85;21.45;;;5.90;99.90;;;;;;4934351;28;20052;-74
2022/01/16 10:50:23;;;;;;;45.00;23.27;;;5.50;99.90;;;;;;4938754;28;20047;-74
2022/01/16 10:52:54;;;;;;;45.00;22.45;;;6.00;99.90;;;;;;4938980;29;20046;-74
2022/01/16 10:55:32;;;;;;;45.50;21.55;;;6.00;99.90;;;;;;4937229;28;20077;-74
2022/01/16 10:58:07;;;;;;;44.22;20.95;;;6.00;99.90;;;;;;4937395;28;21666;-75
2022/01/16 11:00:33;;;;;;;;;;;6.00;99.90;;;;;;4932808;28;20044;-74
2022/01/16 11:03:00;;;;;;;43.60;20.00;;;6.10;99.90;;;;;;4939132;28;20588;-73
2022/01/16 11:05:27;;;;;;;40.35;20.30;;;6.00;99.90;;;;;;4930791;28;20043;-74
2022/01/16 11:08:09;;;;;;;40.55;20.52;;;6.10;99.90;;;;;;4938694;28;20614;-74
2022/01/16 11:10:59;;;;;;;33.55;19.15;;;6.20;99.90;;;;;;4935077;28;20055;-74
2022/01/16 11:13:36;;;;;;;39.88;18.80;;;6.10;99.90;;;;;;4935327;28;20085;-75
2022/01/16 11:16:10;;;;;;;38.03;18.58;;;6.20;99.90;;;;;;4934417;28;20069;-75
2022/01/16 11:18:40;;;;;;;28.95;17.17;;;6.20;99.90;;;;;;4931898;28;20071;-74
2022/01/16 11:26:20;;;;;;;30.52;17.48;;;6.20;99.90;;;;;;4939394;28;20514;-77
2022/01/16 11:28:46;;;;;;;31.55;16.95;;;6.20;99.90;;;;;;4937697;28;20109;-74
2022/01/16 11:31:14;;;;;;;30.08;16.45;;;6.20;99.90;;;;;;4932731;28;20056;-74
2022/01/16 11:33:41;;;;;;;32.17;16.05;;;6.30;99.90;;;;;;4936451;28;20050;-73
2022/01/16 11:36:40;;;;;;;35.17;16.08;;;6.30;99.90;;;;;;4936039;28;20047;-74
2022/01/16 11:39:09;;;;;;;27.48;14.73;;;6.30;99.90;;;;;;4941363;28;20079;-73
2022/01/16 11:41:46;;;;;;;28.70;14.52;;;6.30;99.90;;;;;;4940255;28;20055;-74
2022/01/16 11:44:23;;;;;;;32.75;15.55;;;6.30;99.90;;;;;;4929978;28;20105;-73
2022/01/16 11:46:50;;;;;;;24.33;14.85;;;6.30;99.90;;;;;;4929948;28;20160;-74
2022/01/16 11:49:19;;;;;;;27.40;14.93;;;6.30;99.90;;;;;;4932246;28;20052;-73
2022/01/16 11:51:51;;;;;;;28.52;13.02;;;6.30;99.90;;;;;;4939367;28;20044;-73
2022/01/16 11:54:25;;;;;;;30.92;12.88;;;6.40;99.90;;;;;;4935935;28;20134;-73
2022/01/16 11:56:59;;;;;;;26.67;13.20;;;6.40;99.90;;;;;;4937321;28;20138;-72
2022/01/16 11:59:24;;;;;;;27.55;12.55;;;6.40;99.90;;;;;;4934157;28;20089;-73
2022/01/16 12:01:58;;;;;;;30.85;12.95;;;6.40;99.90;;;;;;4942402;28;20444;-73
2022/01/16 12:04:29;;;;;;;21.50;12.10;;;6.40;99.90;;;;;;4933319;28;20043;-73
2022/01/16 12:07:13;;;;;;;26.02;12.20;;;6.40;99.90;;;;;;4935743;28;20051;-73
2022/01/16 12:09:46;;;;;;;27.70;10.32;;;6.40;99.90;;;;;;4932612;28;20052;-73
2022/01/16 12:12:12;;;;;;;27.15;11.38;;;6.40;99.90;;;;;;4937899;28;20510;-73
2022/01/16 12:14:55;;;;;;;27.75;10.88;;;6.40;99.90;;;;;;4938732;28;20051;-72
2022/01/16 12:17:24;;;;;;;27.67;11.20;;;6.40;99.90;;;;;;4928887;28;20051;-72
2022/01/16 12:19:51;;;;;;;19.98;10.00;;;6.40;99.90;;;;;;4929700;28;20517;-72
2022/01/16 12:22:18;;;;;;;27.85;10.45;;;6.40;99.90;;;;;;4934897;28;20154;-73
2022/01/16 12:24:49;;;;;;;25.63;10.75;;;6.50;99.90;;;;;;4937891;28;20101;-72
2022/01/16 12:27:25;;;;;;;24.15;11.25;;;6.50;99.90;;;;;;4939023;28;20063;-72
2022/01/16 12:30:28;;;;;;;25.05;10.77;;;6.50;99.90;;;;;;4938660;28;20047;-76
2022/01/16 12:32:54;;;;;;;23.88;10.50;;;6.50;99.90;;;;;;4935232;28;20372;-77
2022/01/16 12:35:41;;;;;;;23.55;9.73;;;6.50;99.90;;;;;;4932805;28;20066;-77
2022/01/16 12:38:16;;;;;;;20.95;9.30;;;6.50;99.90;;;;;;4946597;28;20051;-79
2022/01/16 12:40:51;;;;;;;20.90;8.80;;;6.50;99.90;;;;;;4929840;28;20083;-80
2022/01/16 12:43:27;;;;;;;21.08;9.23;;;6.50;99.90;;;;;;4943075;28;20079;-80
2022/01/16 12:45:53;;;;;;;24.70;9.35;;;6.50;99.90;;;;;;4934637;28;20056;-74
2022/01/16 12:48:19;;;;;;;17.45;8.38;;;6.50;99.90;;;;;;4937879;28;20438;-77
2022/01/16 12:50:45;;;;;;;14.85;8.60;;;6.50;99.90;;;;;;4931752;28;20051;-76
2022/01/16 12:53:11;;;;;;;23.52;8.13;;;6.50;99.90;;;;;;4935046;28;20118;-75
2022/01/16 12:55:36;;;;;;;20.13;9.18;;;6.50;99.90;;;;;;4934472;28;20044;-75
2022/01/16 12:58:16;;;;;;;19.35;7.70;;;6.60;99.90;;;;;;4936809;28;20052;-75
2022/01/16 13:01:04;;;;;;;16.40;7.75;;;6.60;99.90;;;;;;4932645;28;20102;-74
2022/01/16 13:03:32;;;;;;;21.48;8.23;;;6.60;99.90;;;;;;4932616;28;20039;-74
2022/01/16 13:06:19;;;;;;;23.20;7.38;;;6.60;99.90;;;;;;4933981;28;20055;-72
2022/01/16 13:09:06;;;;;;;20.73;7.57;;;6.60;99.90;;;;;;4930196;28;20173;-73
2022/01/16 13:11:39;;;;;;;16.00;7.63;;;6.70;99.90;;;;;;4934199;28;20084;-73
2022/01/16 13:14:07;;;;;;;20.02;8.00;;;6.70;99.90;;;;;;4929548;28;20043;-73
2022/01/16 13:16:39;;;;;;;17.83;8.02;;;6.70;99.90;;;;;;4927867;28;20440;-73
2022/01/16 13:19:12;;;;;;;18.20;8.35;;;6.70;99.90;;;;;;4931055;28;20090;-73
2022/01/16 13:22:02;;;;;;;18.08;7.47;;;6.70;99.90;;;;;;4938233;28;20081;-74
2022/01/16 13:24:30;;;;;;;16.50;7.85;;;6.60;99.90;;;;;;4933981;28;20079;-74